Time;durP1;ratioP1;P1;durP2;ratioP2;P2;SDS_P1;SDS_P2;PMS_P1;PMS_P2;Temp;Humidity;BMP_temperature;BMP_pressure;BME280_temperature;BME280_humidity;BME280_pressure;Samples;Min_cycle;Max_cycle;Signal;HPM_P1;HPM_P2
2021/07/03 00:01:59;;;;;;;1.80;0.50;;;;;;;-142.37;100.00;59669.53;5014447;28;20017;-61
2021/07/03 00:04:25;;;;;;;1.27;0.40;;;;;;;-142.37;100.00;59669.53;5014635;28;20022;-61
2021/07/03 00:06:50;;;;;;;3.80;0.63;;;;;;;-142.37;100.00;59669.53;5014462;28;20432;-61
2021/07/03 00:09:16;;;;;;;0.82;0.40;;;;;;;-142.37;100.00;59669.53;5014429;28;20025;-61
2021/07/03 00:11:43;;;;;;;0.68;0.38;;;;;;;-142.37;100.00;59669.53;5014389;28;20061;-61
2021/07/03 00:14:09;;;;;;;1.00;0.40;;;;;;;-142.37;100.00;59669.53;5014343;28;20021;-61
2021/07/03 00:16:35;;;;;;;2.17;0.57;;;;;;;-142.37;100.00;59669.53;5014440;28;20061;-60
2021/07/03 00:19:01;;;;;;;1.70;0.65;;;;;;;-142.37;100.00;59669.53;5014358;28;20049;-61
2021/07/03 00:21:26;;;;;;;2.53;0.73;;;;;;;-142.37;100.00;59669.53;5013351;28;20483;-60
2021/07/03 00:23:52;;;;;;;0.75;0.35;;;;;;;-142.37;100.00;59669.53;5014164;28;20473;-60
2021/07/03 00:26:17;;;;;;;0.70;0.40;;;;;;;-142.37;100.00;59669.53;5014144;28;20021;-61
2021/07/03 00:28:43;;;;;;;1.85;0.77;;;;;;;-142.37;100.00;59669.53;5019778;28;20464;-60
2021/07/03 00:31:08;;;;;;;1.67;0.82;;;;;;;-142.37;100.00;59669.53;5025225;28;20018;-61
2021/07/03 00:33:34;;;;;;;0.90;0.50;;;;;;;-142.37;100.00;59669.53;5014161;28;20065;-61
2021/07/03 00:35:59;;;;;;;1.13;0.85;;;;;;;-142.37;100.00;59669.53;5013925;28;20026;-61
2021/07/03 00:38:24;;;;;;;0.85;0.50;;;;;;;-142.37;100.00;59669.53;5013983;28;20372;-61
2021/07/03 00:40:50;;;;;;;0.73;0.40;;;;;;;-142.37;100.00;59669.53;5013764;28;20040;-61
2021/07/03 00:43:15;;;;;;;1.30;0.50;;;;;;;-142.37;100.00;59669.53;5013851;28;20551;-61
2021/07/03 00:45:41;;;;;;;0.40;0.38;;;;;;;-142.37;100.00;59669.53;5013879;28;20109;-60
2021/07/03 00:48:07;;;;;;;0.50;0.47;;;;;;;-142.37;100.00;59669.53;5013653;28;20032;-60
2021/07/03 00:50:33;;;;;;;1.17;0.50;;;;;;;-142.37;100.00;59669.53;5013695;28;20022;-61
2021/07/03 00:52:58;;;;;;;1.10;0.40;;;;;;;-142.37;100.00;59669.53;5013678;28;20064;-60
2021/07/03 00:55:26;;;;;;;0.88;0.50;;;;;;;-142.37;100.00;59669.53;5013657;28;20072;-60
2021/07/03 00:57:53;;;;;;;0.57;0.50;;;;;;;-142.37;100.00;59669.53;5013257;28;20386;-61
2021/07/03 01:00:19;;;;;;;1.42;0.50;;;;;;;-142.37;100.00;59669.53;5013482;28;20056;-61
2021/07/03 01:02:45;;;;;;;2.60;0.75;;;;;;;-142.37;100.00;59669.53;5013543;28;20032;-60
2021/07/03 01:05:12;;;;;;;1.23;0.40;;;;;;;-142.37;100.00;59669.53;5013735;28;20029;-61
2021/07/03 01:07:38;;;;;;;0.30;0.30;;;;;;;-142.37;100.00;59669.53;5013363;28;20026;-61
2021/07/03 01:10:17;;;;;;;1.02;0.30;;;;;;;-142.37;100.00;59669.53;5013494;28;20029;-61
2021/07/03 01:12:42;;;;;;;1.83;0.47;;;;;;;-142.37;100.00;59669.53;5013610;28;20025;-61
2021/07/03 01:15:08;;;;;;;0.82;0.43;;;;;;;-142.37;100.00;59669.53;5013239;28;20034;-61
2021/07/03 01:17:33;;;;;;;0.77;0.35;;;;;;;-142.37;100.00;59669.53;5013461;28;20025;-60
2021/07/03 01:19:58;;;;;;;1.08;0.40;;;;;;;-142.37;100.00;59669.53;5013199;28;20026;-60
2021/07/03 01:22:24;;;;;;;1.08;0.30;;;;;;;-142.37;100.00;59669.53;5013211;28;20044;-61
2021/07/03 01:24:50;;;;;;;2.05;0.52;;;;;;;-142.37;100.00;59669.53;5013095;28;20262;-61
2021/07/03 01:27:15;;;;;;;1.23;0.70;;;;;;;-142.37;100.00;59669.53;5013486;28;20045;-61
2021/07/03 01:29:41;;;;;;;1.88;0.65;;;;;;;-142.37;100.00;59669.53;5013360;28;20104;-60
2021/07/03 01:32:07;;;;;;;0.82;0.60;;;;;;;-142.37;100.00;59669.53;5012641;28;20040;-61
2021/07/03 01:34:33;;;;;;;1.10;0.50;;;;;;;-142.37;100.00;59669.53;5012547;28;20469;-61
2021/07/03 01:36:58;;;;;;;2.35;0.57;;;;;;;-142.37;100.00;59669.53;5013276;28;20036;-61
2021/07/03 01:39:24;;;;;;;1.52;0.45;;;;;;;-142.37;100.00;59669.53;5013310;28;20399;-61
2021/07/03 01:41:50;;;;;;;1.35;0.68;;;;;;;-142.37;100.00;59669.53;5013156;28;20045;-61
2021/07/03 01:44:24;;;;;;;1.67;0.45;;;;;;;-142.37;100.00;59669.53;5013155;28;20357;-60
2021/07/03 01:46:50;;;;;;;1.23;0.60;;;;;;;-142.37;100.00;59669.53;5013076;28;20052;-60
2021/07/03 01:49:15;;;;;;;1.67;0.43;;;;;;;-142.37;100.00;59669.53;5013180;28;20104;-60
2021/07/03 01:51:40;;;;;;;0.60;0.22;;;;;;;-142.37;100.00;59669.53;5013158;28;20457;-61
2021/07/03 01:54:06;;;;;;;2.05;0.50;;;;;;;-142.37;100.00;59669.53;5012978;28;20109;-61
2021/07/03 01:56:31;;;;;;;1.80;0.50;;;;;;;-142.37;100.00;59669.53;5013187;28;20018;-61
2021/07/03 01:58:56;;;;;;;2.03;0.60;;;;;;;-142.37;100.00;59669.53;5012888;28;20439;-61
2021/07/03 02:01:22;;;;;;;1.92;0.60;;;;;;;-142.37;100.00;59669.53;5013014;28;20037;-62
2021/07/03 02:03:47;;;;;;;1.27;0.30;;;;;;;-142.37;100.00;59669.53;5013060;28;20032;-63
2021/07/03 02:06:12;;;;;;;0.93;0.50;;;;;;;-142.37;100.00;59669.53;5013089;28;20022;-62
2021/07/03 02:08:38;;;;;;;3.90;0.75;;;;;;;-142.37;100.00;59669.53;5012452;28;20037;-63
2021/07/03 02:11:04;;;;;;;1.10;0.55;;;;;;;-142.37;100.00;59669.53;5012199;28;20018;-63
2021/07/03 02:13:30;;;;;;;0.68;0.40;;;;;;;-142.37;100.00;59669.53;5013180;28;20053;-62
2021/07/03 02:15:57;;;;;;;2.08;0.68;;;;;;;-142.37;100.00;59669.53;5012767;28;20029;-62
2021/07/03 02:18:22;;;;;;;1.67;0.60;;;;;;;-142.37;100.00;59669.53;5013020;28;20018;-63
2021/07/03 02:20:49;;;;;;;3.17;0.85;;;;;;;-142.37;100.00;59669.53;5012893;28;20030;-63
2021/07/03 02:23:15;;;;;;;1.83;0.40;;;;;;;-142.37;100.00;59669.53;5011937;28;20461;-63
2021/07/03 02:25:41;;;;;;;0.60;0.30;;;;;;;-142.37;100.00;59669.53;5011805;28;20030;-63
2021/07/03 02:28:07;;;;;;;4.68;0.55;;;;;;;-142.37;100.00;59669.53;5012017;28;20032;-62
2021/07/03 02:30:32;;;;;;;1.63;0.82;;;;;;;-142.37;100.00;59669.53;5012938;28;20097;-62
2021/07/03 02:32:59;;;;;;;1.33;0.55;;;;;;;-142.37;100.00;59669.53;5012040;28;20168;-62
2021/07/03 02:35:25;;;;;;;0.65;0.55;;;;;;;-142.37;100.00;59669.53;5013605;28;20030;-63
2021/07/03 02:37:51;;;;;;;1.38;0.52;;;;;;;-142.37;100.00;59669.53;5016293;28;20029;-62
2021/07/03 02:40:17;;;;;;;1.10;0.40;;;;;;;-142.37;100.00;59669.53;5016255;28;20048;-62
2021/07/03 02:42:44;;;;;;;1.38;0.50;;;;;;;-142.37;100.00;59669.53;5016323;28;20034;-63
2021/07/03 02:45:12;;;;;;;1.77;0.68;;;;;;;-142.37;100.00;59669.53;5016335;28;20028;-62
2021/07/03 02:47:38;;;;;;;1.33;0.57;;;;;;;-142.37;100.00;59669.53;5016145;28;20036;-62
2021/07/03 02:50:07;;;;;;;1.17;0.47;;;;;;;-142.37;100.00;59669.53;5016068;28;20032;-62
2021/07/03 02:52:32;;;;;;;1.65;0.43;;;;;;;-142.37;100.00;59669.53;5016044;28;20485;-63
2021/07/03 02:54:58;;;;;;;1.08;0.50;;;;;;;-142.37;100.00;59669.53;5016021;28;20057;-63
2021/07/03 02:57:23;;;;;;;0.35;0.30;;;;;;;-142.37;100.00;59669.53;5015824;28;20034;-62
2021/07/03 02:59:48;;;;;;;0.65;0.40;;;;;;;-142.37;100.00;59669.53;5015729;28;20473;-62
2021/07/03 03:02:14;;;;;;;1.00;0.60;;;;;;;-142.37;100.00;59669.53;5015825;28;20025;-62
2021/07/03 03:04:39;;;;;;;1.48;0.50;;;;;;;-142.37;100.00;59669.53;5016004;28;20553;-62
2021/07/03 03:07:05;;;;;;;1.08;0.60;;;;;;;-142.37;100.00;59669.53;5015656;28;20362;-62
2021/07/03 03:09:31;;;;;;;0.88;0.43;;;;;;;-142.37;100.00;59669.53;5015680;28;20061;-62
2021/07/03 03:11:56;;;;;;;0.55;0.40;;;;;;;-142.37;100.00;59669.53;5015639;28;20500;-62
2021/07/03 03:14:22;;;;;;;0.57;0.43;;;;;;;-142.37;100.00;59669.53;5015696;28;20065;-62
2021/07/03 03:16:47;;;;;;;1.42;0.40;;;;;;;-142.37;100.00;59669.53;5015624;28;20022;-63
2021/07/03 03:19:13;;;;;;;2.00;0.52;;;;;;;-142.37;100.00;59669.53;5015690;28;20033;-62
2021/07/03 03:21:38;;;;;;;1.23;0.60;;;;;;;-142.37;100.00;59669.53;5015542;28;20453;-63
2021/07/03 03:24:04;;;;;;;1.42;0.60;;;;;;;-142.37;100.00;59669.53;5015292;28;20034;-63
2021/07/03 03:26:29;;;;;;;0.50;0.30;;;;;;;-142.37;100.00;59669.53;5015545;28;20477;-63
2021/07/03 03:28:54;;;;;;;0.40;0.30;;;;;;;-142.37;100.00;59669.53;5020735;28;20686;-62
2021/07/03 03:31:20;;;;;;;1.60;0.82;;;;;;;-142.37;100.00;59669.53;5025055;28;20408;-63
2021/07/03 03:33:45;;;;;;;1.45;0.47;;;;;;;-142.37;100.00;59669.53;5015345;28;20492;-63
2021/07/03 03:36:12;;;;;;;1.10;0.40;;;;;;;-142.37;100.00;59669.53;5015384;28;20052;-63
2021/07/03 03:38:37;;;;;;;2.20;0.60;;;;;;;-142.37;100.00;59669.53;5015247;28;20381;-63
2021/07/03 03:41:02;;;;;;;0.65;0.55;;;;;;;-142.37;100.00;59669.53;5015066;28;20028;-62
2021/07/03 03:43:28;;;;;;;1.67;0.30;;;;;;;-142.37;100.00;59669.53;5015226;28;20029;-63
2021/07/03 03:45:53;;;;;;;1.00;0.40;;;;;;;-142.37;100.00;59669.53;5014701;28;20032;-62
2021/07/03 03:48:18;;;;;;;0.45;0.40;;;;;;;-142.37;100.00;59669.53;5015001;28;20053;-62
2021/07/03 03:50:44;;;;;;;0.57;0.30;;;;;;;-142.37;100.00;59669.53;5015000;28;20029;-62
2021/07/03 03:53:09;;;;;;;0.68;0.25;;;;;;;-142.37;100.00;59669.53;5014889;28;20491;-62
2021/07/03 03:55:34;;;;;;;0.52;0.40;;;;;;;-142.37;100.00;59669.53;5015142;28;20523;-63
2021/07/03 03:58:00;;;;;;;1.20;0.35;;;;;;;-142.37;100.00;59669.53;5014505;28;20477;-62
2021/07/03 04:00:26;;;;;;;1.73;0.47;;;;;;;-142.37;100.00;59669.53;5014855;28;20034;-63
2021/07/03 04:02:51;;;;;;;0.82;0.40;;;;;;;-142.37;100.00;59669.53;5014706;28;20034;-62
2021/07/03 04:05:16;;;;;;;1.27;0.43;;;;;;;-142.37;100.00;59669.53;5014767;28;20026;-62
2021/07/03 04:07:43;;;;;;;1.17;0.52;;;;;;;-142.37;100.00;59669.53;5014727;28;20489;-63
2021/07/03 04:10:10;;;;;;;1.02;0.40;;;;;;;-142.37;100.00;59669.53;5014500;28;20041;-62
2021/07/03 04:12:36;;;;;;;0.32;0.25;;;;;;;-142.37;100.00;59669.53;5014781;28;20034;-62
2021/07/03 04:15:03;;;;;;;1.08;0.40;;;;;;;-142.37;100.00;59669.53;5014569;28;20037;-63
2021/07/03 04:17:29;;;;;;;0.82;0.40;;;;;;;-142.37;100.00;59669.53;5014603;28;20029;-63
2021/07/03 04:19:55;;;;;;;1.35;0.38;;;;;;;-142.37;100.00;59669.53;5014392;28;20404;-63
2021/07/03 04:22:20;;;;;;;1.00;0.40;;;;;;;-142.37;100.00;59669.53;5014507;28;20049;-63
2021/07/03 04:24:46;;;;;;;0.70;0.50;;;;;;;-142.37;100.00;59669.53;5014396;28;20032;-63
2021/07/03 04:27:12;;;;;;;1.40;0.55;;;;;;;-142.37;100.00;59669.53;5013332;28;20083;-63
2021/07/03 04:29:38;;;;;;;1.95;0.50;;;;;;;-142.37;100.00;59669.53;5013479;28;20052;-62
2021/07/03 04:32:04;;;;;;;0.73;0.30;;;;;;;-142.37;100.00;59669.53;5014272;28;20065;-63
2021/07/03 04:34:30;;;;;;;2.05;0.60;;;;;;;-142.37;100.00;59669.53;5014301;28;20070;-63
2021/07/03 04:36:56;;;;;;;0.60;0.40;;;;;;;-142.37;100.00;59669.53;5013849;28;20021;-64
2021/07/03 04:39:22;;;;;;;0.82;0.60;;;;;;;-142.37;100.00;59669.53;5012526;28;20072;-64
2021/07/03 04:41:48;;;;;;;0.70;0.50;;;;;;;-142.37;100.00;59669.53;5013314;28;20032;-63
2021/07/03 04:44:14;;;;;;;0.98;0.47;;;;;;;-142.37;100.00;59669.53;5014303;28;20104;-63
2021/07/03 04:46:40;;;;;;;0.98;0.70;;;;;;;-142.37;100.00;59669.53;5014419;28;20025;-63
2021/07/03 04:49:05;;;;;;;3.00;0.60;;;;;;;-142.37;100.00;59669.53;5014195;28;20037;-63
2021/07/03 04:51:31;;;;;;;0.73;0.40;;;;;;;-142.37;100.00;59669.53;5014318;28;20064;-63
2021/07/03 04:53:57;;;;;;;0.68;0.32;;;;;;;-142.37;100.00;59669.53;5014244;28;20030;-63
2021/07/03 04:56:22;;;;;;;1.88;0.55;;;;;;;-142.37;100.00;59669.53;5014115;28;20026;-63
2021/07/03 04:58:47;;;;;;;1.05;0.68;;;;;;;-142.37;100.00;59669.53;5013297;28;20054;-63
2021/07/03 05:01:13;;;;;;;1.60;0.50;;;;;;;-142.37;100.00;59669.53;5013869;28;20029;-63
2021/07/03 05:03:38;;;;;;;0.82;0.30;;;;;;;-142.37;100.00;59669.53;5014253;28;20049;-63
2021/07/03 05:06:04;;;;;;;1.83;0.52;;;;;;;-142.37;100.00;59669.53;5013878;28;20369;-63
2021/07/03 05:08:29;;;;;;;0.63;0.50;;;;;;;-142.37;100.00;59669.53;5014210;28;20025;-63
2021/07/03 05:10:55;;;;;;;2.13;0.60;;;;;;;-142.37;100.00;59669.53;5013829;28;20453;-63
2021/07/03 05:13:20;;;;;;;1.15;0.57;;;;;;;-142.37;100.00;59669.53;5013965;28;20061;-65
2021/07/03 05:15:46;;;;;;;2.05;0.60;;;;;;;-142.37;100.00;59669.53;5014014;28;20080;-64
2021/07/03 05:18:11;;;;;;;2.25;0.57;;;;;;;-142.37;100.00;59669.53;5013777;28;20026;-63
2021/07/03 05:20:37;;;;;;;0.93;0.40;;;;;;;-142.37;100.00;59669.53;5014074;28;20030;-63
2021/07/03 05:23:02;;;;;;;0.57;0.50;;;;;;;-142.37;100.00;59669.53;5013670;28;20022;-64
2021/07/03 05:25:28;;;;;;;1.10;0.35;;;;;;;-142.37;100.00;59669.53;5014284;28;20439;-63
2021/07/03 05:27:54;;;;;;;1.33;0.50;;;;;;;-142.37;100.00;59669.53;5013605;28;20030;-64
2021/07/03 05:30:20;;;;;;;3.63;0.80;;;;;;;-142.37;100.00;59669.53;5013939;28;20072;-63
2021/07/03 05:32:46;;;;;;;0.90;0.50;;;;;;;-142.37;100.00;59669.53;5013781;28;20030;-63
2021/07/03 05:35:12;;;;;;;0.98;0.40;;;;;;;-142.37;100.00;59669.53;5013677;28;20029;-63
2021/07/03 05:37:38;;;;;;;0.95;0.40;;;;;;;-142.37;100.00;59669.53;5013748;28;20037;-63
2021/07/03 05:40:05;;;;;;;2.08;0.50;;;;;;;-142.37;100.00;59669.53;5013478;28;20037;-64
2021/07/03 05:42:30;;;;;;;1.08;0.30;;;;;;;-142.37;100.00;59669.53;5013718;28;20025;-63
2021/07/03 05:44:55;;;;;;;1.25;0.60;;;;;;;-142.37;100.00;59669.53;5013527;28;20044;-63
2021/07/03 05:47:21;;;;;;;0.85;0.50;;;;;;;-142.37;100.00;59669.53;5013760;28;20064;-63
2021/07/03 05:49:47;;;;;;;1.25;0.25;;;;;;;-142.37;100.00;59669.53;5013541;28;20034;-63
2021/07/03 05:52:13;;;;;;;0.65;0.20;;;;;;;-142.37;100.00;59669.53;5013529;28;20357;-63
2021/07/03 05:54:38;;;;;;;1.25;0.43;;;;;;;-142.37;100.00;59669.53;5012423;28;20121;-64
2021/07/03 05:57:04;;;;;;;1.00;0.55;;;;;;;-142.37;100.00;59669.53;5013369;28;20515;-64
2021/07/03 05:59:29;;;;;;;0.93;0.40;;;;;;;-142.37;100.00;59669.53;5013310;28;20057;-64
2021/07/03 06:01:54;;;;;;;0.50;0.20;;;;;;;-142.37;100.00;59669.53;5013143;28;20088;-64
2021/07/03 06:04:20;;;;;;;1.38;0.60;;;;;;;-142.37;100.00;59669.53;5013570;28;20038;-64
2021/07/03 06:06:45;;;;;;;2.78;0.65;;;;;;;-142.37;100.00;59669.53;5013530;28;20026;-64
2021/07/03 06:09:11;;;;;;;1.15;0.45;;;;;;;-142.37;100.00;59669.53;5013885;28;20371;-64
2021/07/03 06:11:36;;;;;;;0.63;0.30;;;;;;;-142.37;100.00;59669.53;5016206;28;20124;-64
2021/07/03 06:14:02;;;;;;;0.70;0.40;;;;;;;-142.37;100.00;59669.53;5017177;28;20483;-65
2021/07/03 06:16:27;;;;;;;1.40;0.40;;;;;;;-142.37;100.00;59669.53;5017148;28;20404;-64
2021/07/03 06:18:53;;;;;;;1.02;0.30;;;;;;;-142.37;100.00;59669.53;5017008;28;20022;-65
2021/07/03 06:21:18;;;;;;;0.82;0.30;;;;;;;-142.37;100.00;59669.53;5017145;28;20041;-64
2021/07/03 06:23:44;;;;;;;1.10;0.55;;;;;;;-142.37;100.00;59669.53;5016978;28;20033;-64
2021/07/03 06:26:09;;;;;;;1.10;0.55;;;;;;;-142.37;100.00;59669.53;5016877;28;20029;-64
2021/07/03 06:28:35;;;;;;;2.47;0.60;;;;;;;-142.37;100.00;59669.53;5016847;28;20030;-64
2021/07/03 06:31:01;;;;;;;1.42;0.60;;;;;;;-142.37;100.00;59669.53;5016691;28;20022;-64
2021/07/03 06:33:27;;;;;;;1.83;0.75;;;;;;;-142.37;100.00;59669.53;5016876;28;20025;-64
2021/07/03 06:35:52;;;;;;;0.65;0.40;;;;;;;-142.37;100.00;59669.53;5015957;28;20368;-64
2021/07/03 06:38:18;;;;;;;1.08;0.38;;;;;;;-142.37;100.00;59669.53;5016704;28;20472;-64
2021/07/03 06:40:43;;;;;;;0.88;0.20;;;;;;;-142.37;100.00;59669.53;5015746;28;20061;-64
2021/07/03 06:43:09;;;;;;;1.38;0.57;;;;;;;-142.37;100.00;59669.53;5016501;28;20022;-64
2021/07/03 06:45:34;;;;;;;1.25;0.40;;;;;;;-142.37;100.00;59669.53;5016490;28;20358;-64
2021/07/03 06:48:00;;;;;;;1.98;0.40;;;;;;;-142.37;100.00;59669.53;5016492;28;20026;-64
2021/07/03 06:50:25;;;;;;;1.75;0.60;;;;;;;-142.37;100.00;59669.53;5015864;28;20041;-64
2021/07/03 06:52:51;;;;;;;1.67;0.40;;;;;;;-142.37;100.00;59669.53;5016252;28;20480;-64
2021/07/03 06:55:16;;;;;;;1.10;0.55;;;;;;;-142.37;100.00;59669.53;5016458;28;20030;-64
2021/07/03 06:57:42;;;;;;;1.73;0.30;;;;;;;-142.37;100.00;59669.53;5015173;28;20112;-64
2021/07/03 07:00:08;;;;;;;3.10;0.20;;;;;;;-142.37;100.00;59669.53;5015490;28;20026;-64
2021/07/03 07:02:34;;;;;;;1.40;0.40;;;;;;;-142.37;100.00;59669.53;5016224;28;20472;-64
2021/07/03 07:05:00;;;;;;;0.98;0.30;;;;;;;-142.37;100.00;59669.53;5016193;28;20108;-63
2021/07/03 07:07:25;;;;;;;0.98;0.40;;;;;;;-142.37;100.00;59669.53;5016216;28;20045;-64
2021/07/03 07:09:51;;;;;;;1.55;0.50;;;;;;;-142.37;100.00;59669.53;5015233;28;20388;-65
2021/07/03 07:12:16;;;;;;;1.95;0.35;;;;;;;-142.37;100.00;59669.53;5015995;28;20033;-64
2021/07/03 07:14:42;;;;;;;1.75;0.55;;;;;;;-142.37;100.00;59669.53;5016079;28;20429;-64
2021/07/03 07:17:09;;;;;;;2.05;0.63;;;;;;;-142.37;100.00;59669.53;5015864;28;20021;-64
2021/07/03 07:19:34;;;;;;;1.95;0.52;;;;;;;-142.37;100.00;59669.53;5026139;28;20113;-64
2021/07/03 07:22:00;;;;;;;2.20;0.45;;;;;;;-142.37;100.00;59669.53;5034788;28;20112;-64
2021/07/03 07:24:25;;;;;;;1.23;0.30;;;;;;;-142.37;100.00;59669.53;5035630;28;20371;-64
2021/07/03 07:26:51;;;;;;;1.38;0.40;;;;;;;-142.37;100.00;59669.53;5035613;28;20429;-64
2021/07/03 07:29:16;;;;;;;1.38;0.65;;;;;;;-142.37;100.00;59669.53;5035492;28;20544;-64
2021/07/03 07:31:42;;;;;;;1.73;0.45;;;;;;;-142.37;100.00;59669.53;5022553;28;20026;-64
2021/07/03 07:34:07;;;;;;;3.63;0.65;;;;;;;-142.37;100.00;59669.53;5015723;28;20021;-63
2021/07/03 07:36:33;;;;;;;1.92;0.63;;;;;;;-142.37;100.00;59669.53;5014362;28;20105;-65
2021/07/03 07:38:58;;;;;;;1.52;0.25;;;;;;;-142.37;100.00;59669.53;5015512;28;20623;-64
2021/07/03 07:41:24;;;;;;;0.20;0.10;;;;;;;-142.37;100.00;59669.53;5015418;28;20034;-64
2021/07/03 07:43:50;;;;;;;0.30;0.30;;;;;;;-142.37;100.00;59669.53;5014149;28;20419;-64
2021/07/03 07:46:15;;;;;;;1.50;0.47;;;;;;;-142.37;100.00;59669.53;5014725;28;20022;-64
2021/07/03 07:48:41;;;;;;;1.10;0.25;;;;;;;-142.37;100.00;59669.53;5014372;28;20034;-64
2021/07/03 07:51:07;;;;;;;2.03;0.55;;;;;;;-142.37;100.00;59669.53;5014649;28;20018;-64
2021/07/03 07:53:33;;;;;;;0.35;0.22;;;;;;;-142.37;100.00;59669.53;5015346;28;20495;-64
2021/07/03 07:56:00;;;;;;;2.25;0.20;;;;;;;-142.37;100.00;59669.53;5013907;28;20026;-64
2021/07/03 07:58:25;;;;;;;1.35;0.35;;;;;;;-142.37;100.00;59669.53;5015133;28;20061;-65
2021/07/03 08:00:53;;;;;;;0.70;0.30;;;;;;;-142.37;100.00;59669.53;5015068;28;20038;-64
2021/07/03 08:03:19;;;;;;;0.95;0.30;;;;;;;-142.37;100.00;59669.53;5014594;28;20038;-64
2021/07/03 08:05:45;;;;;;;1.15;0.30;;;;;;;-142.37;100.00;59669.53;5015248;28;20100;-64
2021/07/03 08:08:12;;;;;;;1.90;0.50;;;;;;;-142.37;100.00;59669.53;5014951;28;20113;-64
2021/07/03 08:10:40;;;;;;;1.17;0.40;;;;;;;-142.37;100.00;59669.53;5015169;28;20069;-64
2021/07/03 08:13:06;;;;;;;0.57;0.20;;;;;;;-142.37;100.00;59669.53;5014040;28;20056;-64
2021/07/03 08:15:32;;;;;;;2.15;0.60;;;;;;;-142.37;100.00;59669.53;5014209;28;20061;-65
2021/07/03 08:17:59;;;;;;;0.50;0.20;;;;;;;-142.37;100.00;59669.53;5014869;28;20030;-64
2021/07/03 08:20:25;;;;;;;2.03;0.50;;;;;;;-142.37;100.00;59669.53;5014783;28;20065;-65
2021/07/03 08:22:52;;;;;;;1.98;0.40;;;;;;;-142.37;100.00;59669.53;5014776;28;20049;-64
2021/07/03 08:25:19;;;;;;;1.92;0.50;;;;;;;-142.37;100.00;59669.53;5012677;28;20025;-64
2021/07/03 08:27:46;;;;;;;0.90;0.22;;;;;;;-142.37;100.00;59669.53;5013971;28;20022;-64
2021/07/03 08:30:13;;;;;;;0.63;0.47;;;;;;;-142.37;100.00;59669.53;5014449;28;20072;-64
2021/07/03 08:32:39;;;;;;;0.52;0.10;;;;;;;-142.37;100.00;59669.53;5014757;28;20039;-64
2021/07/03 08:35:06;;;;;;;0.68;0.30;;;;;;;-142.37;100.00;59669.53;5014570;28;20032;-64
2021/07/03 08:37:31;;;;;;;0.47;0.28;;;;;;;-142.37;100.00;59669.53;5014519;28;20033;-65
2021/07/03 08:39:57;;;;;;;2.58;0.40;;;;;;;-142.37;100.00;59669.53;5013719;28;20068;-64
2021/07/03 08:42:22;;;;;;;0.75;0.30;;;;;;;-142.37;100.00;59669.53;5014544;28;20068;-64
2021/07/03 08:44:49;;;;;;;0.93;0.30;;;;;;;-142.37;100.00;59669.53;5013872;28;20068;-64
2021/07/03 08:47:16;;;;;;;1.38;0.40;;;;;;;-142.37;100.00;59669.53;5014241;28;20036;-64
2021/07/03 08:49:49;;;;;;;1.95;0.25;;;;;;;-142.37;100.00;59669.53;5014304;28;20038;-64
2021/07/03 08:52:14;;;;;;;1.27;0.43;;;;;;;-142.37;100.00;59669.53;5014197;28;20067;-64
2021/07/03 08:54:40;;;;;;;0.38;0.10;;;;;;;-142.37;100.00;59669.53;5014314;28;20018;-65
2021/07/03 08:57:05;;;;;;;1.70;0.60;;;;;;;-142.37;100.00;59669.53;5014022;28;20030;-64
2021/07/03 08:59:31;;;;;;;1.85;0.50;;;;;;;-142.37;100.00;59669.53;5014000;28;20050;-64
2021/07/03 09:01:59;;;;;;;1.10;0.20;;;;;;;-142.37;100.00;59669.53;5013959;28;20042;-64
2021/07/03 09:04:41;;;;;;;0.50;0.50;;;;;;;-142.37;100.00;59669.53;5013773;28;20058;-64
2021/07/03 09:07:14;;;;;;;0.70;0.20;;;;;;;-142.37;100.00;59669.53;5013652;28;20392;-64
2021/07/03 09:09:40;;;;;;;0.95;0.20;;;;;;;-142.37;100.00;59669.53;5014070;28;20095;-64
2021/07/03 09:12:06;;;;;;;1.60;0.60;;;;;;;-142.37;100.00;59669.53;5013908;28;20061;-64
2021/07/03 09:14:32;;;;;;;3.10;0.70;;;;;;;-142.37;100.00;59669.53;5013900;28;20030;-64
2021/07/03 09:16:59;;;;;;;1.15;0.40;;;;;;;-142.37;100.00;59669.53;5013389;28;20033;-64
2021/07/03 09:19:29;;;;;;;1.13;0.70;;;;;;;-142.37;100.00;59669.53;5013961;28;20022;-64
2021/07/03 09:21:55;;;;;;;1.77;0.43;;;;;;;-142.37;100.00;59669.53;5013650;28;20022;-64
2021/07/03 09:24:21;;;;;;;2.88;0.45;;;;;;;-142.37;100.00;59669.53;5013909;28;20026;-64
2021/07/03 09:27:00;;;;;;;1.90;0.52;;;;;;;-142.37;100.00;59669.53;5013705;28;20045;-64
2021/07/03 09:29:25;;;;;;;2.58;0.32;;;;;;;-142.37;100.00;59669.53;5013766;28;20480;-64
2021/07/03 09:31:51;;;;;;;2.00;0.25;;;;;;;-142.37;100.00;59669.53;5013696;28;20056;-64
2021/07/03 09:34:16;;;;;;;1.88;0.65;;;;;;;-142.37;100.00;59669.53;5013356;28;20033;-64
2021/07/03 09:36:42;;;;;;;0.63;0.30;;;;;;;-142.37;100.00;59669.53;5013489;28;20073;-64
2021/07/03 09:39:07;;;;;;;1.17;0.47;;;;;;;-142.37;100.00;59669.53;5013043;28;20032;-64
2021/07/03 09:41:38;;;;;;;2.20;0.50;;;;;;;-142.37;100.00;59669.53;5012967;28;20521;-64
2021/07/03 09:44:11;;;;;;;1.40;0.30;;;;;;;-142.37;100.00;59669.53;5013100;28;20018;-64
2021/07/03 09:46:51;;;;;;;0.85;0.20;;;;;;;-142.37;100.00;59669.53;5017806;28;20033;-64
2021/07/03 09:49:18;;;;;;;1.98;0.35;;;;;;;-142.37;100.00;59669.53;5017673;28;20026;-64
2021/07/03 09:51:53;;;;;;;1.80;0.35;;;;;;;-142.37;100.00;59669.53;5017509;28;20464;-64
2021/07/03 09:54:20;;;;;;;0.30;0.10;;;;;;;-142.37;100.00;59669.53;5017656;28;20034;-64
2021/07/03 09:56:47;;;;;;;2.33;0.50;;;;;;;-142.37;100.00;59669.53;5017372;28;20026;-64
2021/07/03 09:59:12;;;;;;;1.20;0.30;;;;;;;-142.37;100.00;59669.53;5017266;28;20054;-64
2021/07/03 10:01:44;;;;;;;0.95;0.40;;;;;;;-142.37;100.00;59669.53;5017224;28;20036;-64
2021/07/03 10:04:10;;;;;;;1.15;0.38;;;;;;;-142.37;100.00;59669.53;5017250;28;20113;-64
2021/07/03 10:06:41;;;;;;;1.85;0.40;;;;;;;-142.37;100.00;59669.53;5017292;28;20030;-64
2021/07/03 10:09:12;;;;;;;2.65;0.70;;;;;;;-142.37;100.00;59669.53;5017097;28;20022;-64
2021/07/03 10:11:43;;;;;;;1.60;0.63;;;;;;;-142.37;100.00;59669.53;5017312;28;20029;-64
2021/07/03 10:14:09;;;;;;;1.10;0.30;;;;;;;-142.37;100.00;59669.53;5016906;28;20492;-65
2021/07/03 10:16:35;;;;;;;1.98;0.55;;;;;;;-142.37;100.00;59669.53;5017061;28;20021;-64
2021/07/03 10:19:16;;;;;;;2.33;0.40;;;;;;;-142.37;100.00;59669.53;5016771;28;20376;-64
2021/07/03 10:21:43;;;;;;;1.70;0.30;;;;;;;-142.37;100.00;59669.53;5016249;28;20030;-65
2021/07/03 10:24:40;;;;;;;0.95;0.47;;;;;;;-142.37;100.00;59669.53;5015339;28;20056;-64
2021/07/03 10:27:14;;;;;;;1.48;0.52;;;;;;;-142.37;100.00;59669.53;5016263;28;20120;-64
2021/07/03 10:29:42;;;;;;;2.05;0.57;;;;;;;-142.37;100.00;59669.53;5015770;28;20067;-64
2021/07/03 10:32:18;;;;;;;2.45;0.75;;;;;;;-142.37;100.00;59669.53;5016544;28;20018;-64
2021/07/03 10:34:44;;;;;;;1.13;0.30;;;;;;;-142.37;100.00;59669.53;5016757;28;20037;-64
2021/07/03 10:37:09;;;;;;;1.75;0.55;;;;;;;-142.37;100.00;59669.53;5016706;28;20022;-64
2021/07/03 10:39:35;;;;;;;0.85;0.38;;;;;;;-142.37;100.00;59669.53;5015452;28;20373;-64
2021/07/03 10:42:00;;;;;;;0.52;0.30;;;;;;;-142.37;100.00;59669.53;5014869;28;20026;-64
2021/07/03 10:44:38;;;;;;;1.85;0.38;;;;;;;-142.37;100.00;59669.53;5016110;28;20022;-64
2021/07/03 10:47:08;;;;;;;0.90;0.30;;;;;;;-142.37;100.00;59669.53;5015745;28;20068;-65
2021/07/03 10:49:36;;;;;;;1.88;0.47;;;;;;;-142.37;100.00;59669.53;5015633;28;20108;-65
2021/07/03 10:52:13;;;;;;;0.80;0.22;;;;;;;-142.37;100.00;59669.53;5016212;28;20076;-65
2021/07/03 10:54:39;;;;;;;2.05;0.52;;;;;;;-142.37;100.00;59669.53;5016392;28;20400;-64
2021/07/03 10:57:05;;;;;;;1.73;0.77;;;;;;;-142.37;100.00;59669.53;5013823;28;20103;-64
2021/07/03 10:59:37;;;;;;;0.70;0.20;;;;;;;-142.37;100.00;59669.53;5016145;28;20091;-64
2021/07/03 11:02:16;;;;;;;0.88;0.20;;;;;;;-142.37;100.00;59669.53;5015898;28;20022;-64
2021/07/03 11:04:46;;;;;;;1.23;0.40;;;;;;;-142.37;100.00;59669.53;5016143;28;20056;-65
2021/07/03 11:07:13;;;;;;;0.98;0.25;;;;;;;-142.37;100.00;59669.53;5016138;28;20067;-64